createdAt,value
2018-06-19T00:01:44.410Z,83.80
2018-06-19T00:04:13.575Z,83.40
2018-06-19T00:06:42.698Z,83.20
2018-06-19T00:09:11.798Z,82.90
2018-06-19T00:11:40.973Z,82.70
2018-06-19T00:14:10.219Z,83.20
2018-06-19T00:16:39.433Z,83.50
2018-06-19T00:19:08.973Z,83.40
2018-06-19T00:21:45.569Z,84.40
2018-06-19T00:24:14.742Z,83.50
2018-06-19T00:26:43.891Z,83.40
2018-06-19T00:29:13.029Z,83.60
2018-06-19T00:31:42.177Z,83.70
2018-06-19T00:34:11.335Z,83.70
2018-06-19T00:36:40.497Z,83.50
2018-06-19T00:39:11.248Z,83.60
2018-06-19T00:41:40.733Z,83.60
2018-06-19T00:44:10.743Z,83.40
2018-06-19T00:46:42.222Z,83.30
2018-06-19T00:49:11.383Z,83.50
2018-06-19T00:51:40.505Z,83.60
2018-06-19T00:54:09.685Z,84.10
2018-06-19T00:56:55.896Z,84.60
2018-06-19T00:59:25.181Z,84.80
2018-06-19T01:01:55.449Z,84.50
2018-06-19T01:04:24.555Z,85.10
2018-06-19T01:06:53.734Z,85.60
2018-06-19T01:09:22.894Z,85.70
2018-06-19T01:11:52.063Z,86.40
2018-06-19T01:14:21.205Z,86.70
2018-06-19T01:16:50.314Z,86.90
2018-06-19T01:19:19.517Z,87.10
2018-06-19T01:21:48.645Z,87.20
2018-06-19T01:24:17.858Z,87.10
2018-06-19T01:26:46.989Z,87.00
2018-06-19T01:29:16.283Z,86.70
2018-06-19T01:31:45.439Z,86.60
2018-06-19T01:34:14.628Z,86.50
2018-06-19T01:36:43.762Z,86.00
2018-06-19T01:39:12.911Z,86.30
2018-06-19T01:41:42.058Z,86.10
2018-06-19T01:44:11.287Z,86.30
2018-06-19T01:49:09.200Z,86.20
2018-06-19T01:51:38.401Z,85.70
2018-06-19T01:54:07.546Z,84.80
2018-06-19T01:56:36.722Z,84.40
2018-06-19T01:59:05.886Z,84.00
2018-06-19T02:01:35.057Z,84.30
2018-06-19T02:04:04.250Z,83.90
2018-06-19T02:06:33.433Z,84.10
2018-06-19T02:09:02.727Z,84.00
2018-06-19T02:11:31.946Z,84.00
2018-06-19T02:14:01.117Z,84.10
2018-06-19T02:16:30.302Z,84.00
2018-06-19T02:18:59.413Z,84.00
2018-06-19T02:21:28.560Z,84.60
2018-06-19T02:23:57.743Z,84.50
2018-06-19T02:26:26.923Z,84.50
2018-06-19T02:28:56.013Z,84.40
2018-06-19T02:31:25.169Z,84.00
2018-06-19T02:33:54.308Z,83.80
2018-06-19T02:36:23.407Z,83.70
2018-06-19T02:38:52.594Z,83.80
2018-06-19T02:41:21.751Z,83.80
2018-06-19T02:43:50.904Z,83.90
2018-06-19T02:46:26.602Z,83.60
2018-06-19T02:48:55.792Z,83.60
2018-06-19T02:51:24.977Z,83.90
2018-06-19T02:53:54.245Z,84.30
2018-06-19T02:56:23.418Z,84.50
2018-06-19T02:58:52.689Z,84.60
2018-06-19T03:01:21.818Z,84.70
2018-06-19T03:03:50.943Z,85.00
2018-06-19T03:06:20.082Z,85.00
2018-06-19T03:08:49.334Z,85.00
2018-06-19T03:11:18.468Z,85.00
2018-06-19T03:13:47.586Z,85.00
2018-06-19T03:16:16.806Z,85.10
2018-06-19T03:18:45.898Z,85.40
2018-06-19T03:21:15.025Z,85.30
2018-06-19T03:23:44.129Z,85.10
2018-06-19T03:26:13.215Z,85.50
2018-06-19T03:28:42.455Z,85.20
2018-06-19T03:31:11.545Z,85.20
2018-06-19T03:33:40.682Z,85.30
2018-06-19T03:36:09.813Z,85.50
2018-06-19T03:38:38.985Z,84.90
2018-06-19T03:41:08.141Z,85.40
2018-06-19T03:43:37.260Z,85.90
2018-06-19T03:46:06.439Z,85.90
2018-06-19T03:48:35.513Z,85.90
2018-06-19T03:51:04.653Z,85.90
2018-06-19T03:53:33.797Z,86.10
2018-06-19T03:56:03.089Z,86.60
2018-06-19T03:58:32.276Z,85.80
2018-06-19T04:01:01.424Z,85.80
2018-06-19T04:03:30.546Z,85.70
2018-06-19T04:05:59.694Z,85.80
2018-06-19T04:08:28.812Z,85.70
2018-06-19T04:10:57.993Z,86.20
2018-06-19T04:13:27.181Z,86.00
2018-06-19T04:15:56.366Z,85.80
2018-06-19T04:18:25.589Z,85.50
2018-06-19T04:20:54.781Z,85.90
2018-06-19T04:23:23.915Z,86.40
2018-06-19T04:25:53.046Z,87.00
2018-06-19T04:28:22.226Z,87.10
2018-06-19T04:30:51.436Z,86.90
2018-06-19T04:33:20.671Z,87.00
2018-06-19T04:35:49.742Z,86.40
2018-06-19T04:38:18.853Z,86.80
2018-06-19T04:40:48.125Z,86.20
2018-06-19T04:43:17.245Z,86.40
2018-06-19T04:45:46.470Z,86.00
2018-06-19T04:48:15.560Z,86.60
2018-06-19T04:50:44.733Z,86.80
2018-06-19T04:53:13.897Z,86.60
2018-06-19T04:55:43.056Z,87.10
2018-06-19T04:58:12.128Z,88.20
2018-06-19T05:00:41.290Z,88.90
2018-06-19T05:03:10.422Z,89.20
2018-06-19T05:05:39.590Z,89.30
2018-06-19T05:08:08.796Z,89.00
2018-06-19T05:10:38.380Z,88.90
2018-06-19T05:13:07.540Z,88.40
2018-06-19T05:15:43.167Z,89.10
2018-06-19T05:18:12.283Z,88.30
2018-06-19T05:20:41.547Z,88.40
2018-06-19T05:23:10.641Z,88.30
2018-06-19T05:25:39.929Z,88.20
2018-06-19T05:28:09.118Z,87.40
2018-06-19T05:33:07.079Z,87.00
2018-06-19T05:35:36.235Z,86.20
2018-06-19T05:38:05.373Z,86.00
2018-06-19T05:40:34.512Z,85.50
2018-06-19T05:43:03.690Z,85.20
2018-06-19T05:45:32.832Z,84.40
2018-06-19T05:48:02.289Z,84.00
2018-06-19T05:50:31.380Z,83.60
2018-06-19T05:53:00.666Z,83.50
2018-06-19T05:55:29.823Z,83.60
2018-06-19T05:57:59.059Z,83.30
2018-06-19T06:00:28.148Z,83.70
2018-06-19T06:02:57.285Z,83.10
2018-06-19T06:05:26.419Z,82.40
2018-06-19T06:07:55.570Z,82.00
2018-06-19T06:10:24.693Z,81.70
2018-06-19T06:12:53.893Z,81.20
2018-06-19T06:15:23.279Z,81.40
2018-06-19T06:17:58.931Z,81.10
2018-06-19T06:22:56.813Z,80.70
2018-06-19T06:25:25.958Z,80.60
2018-06-19T06:27:55.110Z,80.30
2018-06-19T06:30:24.231Z,80.10
2018-06-19T06:32:53.346Z,81.10
2018-06-19T06:35:22.515Z,80.90
2018-06-19T06:37:51.713Z,80.20
2018-06-19T06:40:20.856Z,78.90
2018-06-19T06:43:00.130Z,78.90
2018-06-19T06:45:29.409Z,80.40
2018-06-19T06:50:27.427Z,81.30
2018-06-19T06:55:25.192Z,81.70
2018-06-19T06:57:54.406Z,81.00
2018-06-19T07:00:23.687Z,80.60
2018-06-19T07:02:52.829Z,79.80
2018-06-19T07:05:22.305Z,79.70
2018-06-19T07:07:51.905Z,79.40
2018-06-19T07:10:21.035Z,78.90
2018-06-19T07:12:50.289Z,79.10
2018-06-19T07:15:19.451Z,79.40
2018-06-19T07:17:48.673Z,79.70
2018-06-19T07:20:17.791Z,79.20
2018-06-19T07:22:46.933Z,75.30
2018-06-19T07:25:16.085Z,71.30
2018-06-19T07:27:45.244Z,69.90
2018-06-19T07:30:14.647Z,65.30
2018-06-19T07:32:43.789Z,62.30
2018-06-19T07:35:13.166Z,63.70
2018-06-19T07:37:42.371Z,65.30
2018-06-19T07:40:11.776Z,67.90
2018-06-19T07:42:40.881Z,70.80
2018-06-19T07:45:10.069Z,73.80
2018-06-19T07:47:39.487Z,75.60
2018-06-19T07:50:08.807Z,76.70
2018-06-19T07:52:37.972Z,77.10
2018-06-19T07:55:07.150Z,77.60
2018-06-19T07:57:36.316Z,77.20
2018-06-19T08:00:05.490Z,70.30
2018-06-19T08:02:34.632Z,57.90
2018-06-19T08:05:03.824Z,50.40
2018-06-19T08:07:33.026Z,44.40
2018-06-19T08:10:02.197Z,39.70
2018-06-19T08:12:31.434Z,38.90
2018-06-19T08:17:29.363Z,50.00
2018-06-19T08:19:58.525Z,55.50
2018-06-19T08:24:56.610Z,64.20
2018-06-19T08:27:26.558Z,66.40
2018-06-19T08:29:55.819Z,69.00
2018-06-19T08:32:24.959Z,70.30
2018-06-19T08:34:54.160Z,72.60
2018-06-19T08:37:23.359Z,73.70
2018-06-19T08:39:52.604Z,73.40
2018-06-19T08:42:21.809Z,73.00
2018-06-19T08:44:50.945Z,70.60
2018-06-19T08:47:20.072Z,69.50
2018-06-19T08:49:49.273Z,68.50
2018-06-19T08:52:18.469Z,68.40
2018-06-19T08:54:47.668Z,66.40
2018-06-19T08:57:16.893Z,61.50
2018-06-19T08:59:46.090Z,60.70
2018-06-19T09:02:15.372Z,60.00
2018-06-19T09:04:44.517Z,59.90
2018-06-19T09:07:13.969Z,60.70
2018-06-19T09:09:43.141Z,62.30
2018-06-19T09:12:12.366Z,63.70
2018-06-19T09:14:41.608Z,65.10
2018-06-19T09:19:39.646Z,67.50
2018-06-19T09:22:08.801Z,68.10
2018-06-19T09:24:37.964Z,69.00
2018-06-19T09:27:07.062Z,68.90
2018-06-19T09:29:36.196Z,69.00
2018-06-19T09:32:05.511Z,69.00
2018-06-19T09:34:34.649Z,68.50
2018-06-19T09:37:04.123Z,69.00
2018-06-19T09:39:33.332Z,68.90
2018-06-19T09:42:02.469Z,69.30
2018-06-19T09:47:00.385Z,70.10
2018-06-19T09:49:29.785Z,70.00
2018-06-19T09:51:59.107Z,68.60
2018-06-19T09:54:28.350Z,68.00
2018-06-19T09:56:57.605Z,68.20
2018-06-19T09:59:26.955Z,67.20
2018-06-19T10:01:56.169Z,64.60
2018-06-19T10:04:25.294Z,63.00
2018-06-19T10:06:54.541Z,62.20
2018-06-19T10:09:23.766Z,64.00
2018-06-19T10:11:53.016Z,64.50
2018-06-19T10:14:22.134Z,67.10
2018-06-19T10:16:51.348Z,68.30
2018-06-19T10:19:20.553Z,69.40
2018-06-19T10:21:49.785Z,69.20
2018-06-19T10:24:18.944Z,69.40
2018-06-19T10:26:48.296Z,69.20
2018-06-19T10:29:17.434Z,68.80
2018-06-19T10:31:46.622Z,68.70
2018-06-19T10:34:15.744Z,68.80
2018-06-19T10:36:44.991Z,68.30
2018-06-19T10:39:14.186Z,67.90
2018-06-19T10:41:43.366Z,68.50
2018-06-19T10:44:12.551Z,68.80
2018-06-19T10:46:41.678Z,68.30
2018-06-19T10:49:10.827Z,68.50
2018-06-19T10:51:39.985Z,68.70
2018-06-19T10:54:09.142Z,68.50
2018-06-19T10:56:38.407Z,68.10
2018-06-19T10:59:07.745Z,67.00
2018-06-19T11:01:36.930Z,65.90
2018-06-19T11:04:06.102Z,65.40
2018-06-19T11:06:35.255Z,65.50
2018-06-19T11:09:06.776Z,65.00
2018-06-19T11:14:04.732Z,63.00
2018-06-19T11:16:33.915Z,62.80
2018-06-19T11:19:03.024Z,63.60
2018-06-19T11:21:32.195Z,64.00
2018-06-19T11:24:01.462Z,63.70
2018-06-19T11:26:30.628Z,63.50
2018-06-19T11:31:28.809Z,63.40
2018-06-19T11:33:57.988Z,63.70
2018-06-19T11:36:27.176Z,64.00
2018-06-19T11:38:56.337Z,64.50
2018-06-19T11:41:25.571Z,64.60
2018-06-19T11:43:54.760Z,65.20
2018-06-19T11:46:23.983Z,66.40
2018-06-19T11:48:53.105Z,66.50
2018-06-19T11:51:22.370Z,66.60
2018-06-19T11:53:51.634Z,66.90
2018-06-19T11:56:20.826Z,66.20
2018-06-19T11:58:51.441Z,66.30
2018-06-19T12:01:20.576Z,66.00
2018-06-19T12:03:50.375Z,64.80
2018-06-19T12:06:19.928Z,65.30
2018-06-19T12:08:49.064Z,65.70
2018-06-19T12:11:18.182Z,65.90
2018-06-19T12:13:47.323Z,65.80
2018-06-19T12:16:16.529Z,65.30
2018-06-19T12:18:45.674Z,64.90
2018-06-19T12:21:14.829Z,64.50
2018-06-19T12:23:44.097Z,63.90
2018-06-19T12:26:13.426Z,63.10
2018-06-19T12:28:42.630Z,62.60
2018-06-19T12:33:40.728Z,62.90
2018-06-19T12:36:09.910Z,62.70
2018-06-19T12:38:39.127Z,63.20
2018-06-19T12:41:08.218Z,62.90
2018-06-19T12:43:37.351Z,62.90
2018-06-19T12:46:06.510Z,62.20
2018-06-19T12:48:35.642Z,61.90
2018-06-19T12:52:18.214Z,62.00
2018-06-19T12:54:58.483Z,61.70
2018-06-19T12:57:27.618Z,61.40
2018-06-19T12:59:56.728Z,60.50
2018-06-19T13:02:25.917Z,59.90
2018-06-19T13:05:06.295Z,60.60
2018-06-19T13:07:39.487Z,59.40
2018-06-19T13:10:08.686Z,59.10
2018-06-19T13:13:20.920Z,58.90
2018-06-19T13:15:51.038Z,59.50
2018-06-19T13:18:32.298Z,60.10
2018-06-19T13:21:01.487Z,60.80
2018-06-19T13:23:31.086Z,61.50
2018-06-19T13:26:00.282Z,60.80
2018-06-19T13:28:41.070Z,60.90
2018-06-19T13:31:21.519Z,61.40
2018-06-19T13:33:50.664Z,62.00
2018-06-19T13:36:19.890Z,62.80
2018-06-19T13:38:49.017Z,62.50
2018-06-19T13:41:29.569Z,62.40
2018-06-19T13:44:11.390Z,61.80
2018-06-19T13:46:40.530Z,62.10
2018-06-19T13:49:09.755Z,62.20
2018-06-19T13:51:38.872Z,62.00
2018-06-19T13:54:08.013Z,61.90
2018-06-19T13:57:50.425Z,60.90
2018-06-19T14:00:22.369Z,61.60
2018-06-19T14:02:51.491Z,62.00
2018-06-19T14:05:20.861Z,61.00
2018-06-19T14:08:04.787Z,60.80
2018-06-19T14:10:45.664Z,60.60
2018-06-19T14:13:14.753Z,60.10
2018-06-19T14:15:48.613Z,60.60
2018-06-19T14:18:18.984Z,61.00
2018-06-19T14:20:48.156Z,61.10
2018-06-19T14:23:17.572Z,60.70
2018-06-19T14:25:48.838Z,61.00
2018-06-19T14:28:18.048Z,60.60
2018-06-19T14:30:47.388Z,61.30
2018-06-19T14:33:16.746Z,60.20
2018-06-19T14:35:46.121Z,60.50
2018-06-19T14:38:15.489Z,60.80
2018-06-19T14:40:44.935Z,60.70
2018-06-19T14:43:14.339Z,60.90
2018-06-19T14:45:43.798Z,60.60
2018-06-19T14:48:13.160Z,60.10
2018-06-19T14:50:42.577Z,60.00
2018-06-19T14:53:11.975Z,60.90
2018-06-19T14:55:41.228Z,62.00
2018-06-19T14:58:10.416Z,62.50
2018-06-19T15:00:39.563Z,62.50
2018-06-19T15:05:37.586Z,62.90
2018-06-19T15:08:06.808Z,63.40
2018-06-19T15:10:36.020Z,62.70
2018-06-19T15:13:05.320Z,63.20
2018-06-19T15:15:34.582Z,64.10
2018-06-19T15:18:03.815Z,63.80
2018-06-19T15:20:33.164Z,63.60
2018-06-19T15:23:02.410Z,63.90
2018-06-19T15:25:31.878Z,63.50
2018-06-19T15:28:01.215Z,63.20
2018-06-19T15:30:30.466Z,63.40
2018-06-19T15:32:59.672Z,63.30
2018-06-19T15:35:28.840Z,63.30
2018-06-19T15:37:58.002Z,63.60
2018-06-19T15:40:27.199Z,63.70
2018-06-19T15:42:56.359Z,63.60
2018-06-19T15:45:25.599Z,63.50
2018-06-19T15:47:54.796Z,63.40
2018-06-19T15:50:24.044Z,63.50
2018-06-19T15:52:54.373Z,63.10
2018-06-19T15:55:23.553Z,62.90
2018-06-19T15:57:52.698Z,62.80
2018-06-19T16:00:21.913Z,62.80
2018-06-19T16:02:51.131Z,62.20
2018-06-19T16:05:20.291Z,62.90
2018-06-19T16:07:54.933Z,63.20
2018-06-19T16:10:24.184Z,63.00
2018-06-19T16:15:22.089Z,62.90
2018-06-19T16:17:51.495Z,63.30
2018-06-19T16:20:20.649Z,63.70
2018-06-19T16:22:49.927Z,63.20
2018-06-19T16:25:19.386Z,63.50
2018-06-19T16:27:49.056Z,63.80
2018-06-19T16:30:18.389Z,63.70
2018-06-19T16:32:47.678Z,63.50
2018-06-19T16:35:17.186Z,63.90
2018-06-19T16:37:46.494Z,63.70
2018-06-19T16:40:15.933Z,63.90
2018-06-19T16:42:45.252Z,64.40
2018-06-19T16:45:14.453Z,64.30
2018-06-19T16:47:43.587Z,64.40
2018-06-19T16:50:12.795Z,64.60
2018-06-19T16:52:42.000Z,64.70
2018-06-19T16:55:11.238Z,64.90
2018-06-19T16:57:40.391Z,64.90
2018-06-19T17:00:09.626Z,65.00
2018-06-19T17:02:38.821Z,64.70
2018-06-19T17:05:07.991Z,64.70
2018-06-19T17:07:40.688Z,64.80
2018-06-19T17:10:10.269Z,65.00
2018-06-19T17:12:39.958Z,65.20
2018-06-19T17:15:09.125Z,65.00
2018-06-19T17:17:38.294Z,65.30
2018-06-19T17:20:07.862Z,65.40
2018-06-19T17:22:37.130Z,66.00
2018-06-19T17:25:06.355Z,65.40
2018-06-19T17:27:35.510Z,65.60
2018-06-19T17:30:04.895Z,65.60
2018-06-19T17:32:34.045Z,65.70
2018-06-19T17:37:32.069Z,66.00
2018-06-19T17:40:03.188Z,66.10
2018-06-19T17:42:32.365Z,66.10
2018-06-19T17:45:01.604Z,66.00
2018-06-19T17:47:30.776Z,66.10
2018-06-19T17:50:00.472Z,66.30
2018-06-19T17:52:29.630Z,66.30
2018-06-19T17:54:58.816Z,66.60
2018-06-19T17:57:28.665Z,66.60
2018-06-19T17:59:59.719Z,66.80
2018-06-19T18:02:29.857Z,66.80
2018-06-19T18:04:59.135Z,67.00
2018-06-19T18:07:29.313Z,67.10
2018-06-19T18:09:58.534Z,67.30
2018-06-19T18:12:27.773Z,67.50
2018-06-19T18:14:56.989Z,67.30
2018-06-19T18:17:26.224Z,67.30
2018-06-19T18:19:55.387Z,67.30
2018-06-19T18:22:24.625Z,67.50
2018-06-19T18:24:54.674Z,67.60
2018-06-19T18:27:23.983Z,67.50
2018-06-19T18:29:53.178Z,67.80
2018-06-19T18:32:22.370Z,68.20
2018-06-19T18:34:51.656Z,68.50
2018-06-19T18:37:21.304Z,68.90
2018-06-19T18:39:50.503Z,69.00
2018-06-19T18:42:20.014Z,69.30
2018-06-19T18:44:49.310Z,69.50
2018-06-19T18:47:18.514Z,69.90
2018-06-19T18:49:47.855Z,70.20
2018-06-19T18:52:18.000Z,70.30
2018-06-19T18:57:16.753Z,70.50
2018-06-19T18:59:45.960Z,70.60
2018-06-19T19:02:15.132Z,71.00
2018-06-19T19:04:44.282Z,71.20
2018-06-19T19:07:13.493Z,71.50
2018-06-19T19:09:47.153Z,71.80
2018-06-19T19:12:16.425Z,72.10
2018-06-19T19:14:51.237Z,72.20
2018-06-19T19:17:25.900Z,72.40
2018-06-19T19:19:56.047Z,72.70
2018-06-19T19:22:25.302Z,73.00
2018-06-19T19:24:55.401Z,73.40
2018-06-19T19:27:30.089Z,73.60
2018-06-19T19:29:59.670Z,74.00
2018-06-19T19:32:28.853Z,74.10
2018-06-19T19:34:58.912Z,74.40
2018-06-19T19:37:33.384Z,74.60
2018-06-19T19:40:02.669Z,74.90
2018-06-19T19:42:32.236Z,75.70
2018-06-19T19:45:03.314Z,75.30
2018-06-19T19:47:38.109Z,75.50
2018-06-19T19:50:07.918Z,75.70
2018-06-19T19:52:37.271Z,75.70
2018-06-19T19:55:07.624Z,75.90
2018-06-19T19:57:42.350Z,76.00
2018-06-19T20:00:16.027Z,76.10
2018-06-19T20:02:45.328Z,76.30
2018-06-19T20:05:14.536Z,76.70
2018-06-19T20:07:43.680Z,76.60
2018-06-19T20:10:12.873Z,77.40
2018-06-19T20:12:45.373Z,77.00
2018-06-19T20:15:14.948Z,77.10
2018-06-19T20:17:44.811Z,77.00
2018-06-19T20:20:14.675Z,77.40
2018-06-19T20:22:43.950Z,77.40
2018-06-19T20:25:13.354Z,77.50
2018-06-19T20:27:43.201Z,77.70
2018-06-19T20:30:12.666Z,77.60
2018-06-19T20:32:42.129Z,78.30
2018-06-19T20:35:12.114Z,78.70
2018-06-19T20:37:41.566Z,78.30
2018-06-19T20:40:11.026Z,78.20
2018-06-19T20:42:40.253Z,78.10
2018-06-19T20:45:09.442Z,78.90
2018-06-19T20:47:38.598Z,78.50
2018-06-19T20:50:07.782Z,78.70
2018-06-19T20:52:37.048Z,78.90
2018-06-19T20:55:07.134Z,79.10
2018-06-19T20:57:36.355Z,79.20
2018-06-19T21:00:05.704Z,79.50
2018-06-19T21:02:34.940Z,79.60
2018-06-19T21:05:04.226Z,79.60
2018-06-19T21:07:35.569Z,79.60
2018-06-19T21:10:04.761Z,79.60
2018-06-19T21:12:33.977Z,80.00
2018-06-19T21:15:03.270Z,79.80
2018-06-19T21:17:32.419Z,80.00
2018-06-19T21:20:01.709Z,80.20
2018-06-19T21:22:30.840Z,80.60
2018-06-19T21:24:59.961Z,80.60
2018-06-19T21:27:29.101Z,80.40
2018-06-19T21:29:58.284Z,80.50
2018-06-19T21:32:27.469Z,80.40
2018-06-19T21:34:56.679Z,80.60
2018-06-19T21:37:25.799Z,80.70
2018-06-19T21:39:54.971Z,80.80
2018-06-19T21:42:24.152Z,81.00
2018-06-19T21:44:53.290Z,81.10
2018-06-19T21:47:22.420Z,81.20
2018-06-19T21:49:51.675Z,81.30
2018-06-19T21:52:22.397Z,81.50
2018-06-19T21:54:51.567Z,81.50
2018-06-19T21:57:20.750Z,81.60
2018-06-19T21:59:49.953Z,81.80
2018-06-19T22:02:33.598Z,81.80
2018-06-19T22:05:06.051Z,81.90
2018-06-19T22:07:35.221Z,82.50
2018-06-19T22:10:04.498Z,82.10
2018-06-19T22:12:33.666Z,82.50
2018-06-19T22:15:02.881Z,82.70
2018-06-19T22:17:32.207Z,82.90
2018-06-19T22:20:01.445Z,82.70
2018-06-19T22:22:30.869Z,82.50
2018-06-19T22:25:00.061Z,83.50
2018-06-19T22:27:29.218Z,83.60
2018-06-19T22:29:58.554Z,84.00
2018-06-19T22:32:27.729Z,84.60
2018-06-19T22:34:56.927Z,84.10
2018-06-19T22:37:26.187Z,84.10
2018-06-19T22:39:55.375Z,84.00
2018-06-19T22:42:24.505Z,83.50
2018-06-19T22:44:53.709Z,83.30
2018-06-19T22:47:22.860Z,83.30
2018-06-19T22:49:52.040Z,84.00
2018-06-19T22:52:21.216Z,84.20
2018-06-19T22:54:50.412Z,84.10
2018-06-19T22:57:19.556Z,84.80
2018-06-19T22:59:49.494Z,84.80
2018-06-19T23:02:18.784Z,84.80
2018-06-19T23:04:47.938Z,85.20
2018-06-19T23:07:17.163Z,84.30
2018-06-19T23:09:46.298Z,84.40
2018-06-19T23:12:15.445Z,84.40
2018-06-19T23:14:44.557Z,84.40
2018-06-19T23:17:13.804Z,84.60
2018-06-19T23:19:43.001Z,84.40
2018-06-19T23:22:12.165Z,86.00
2018-06-19T23:24:41.320Z,86.90
2018-06-19T23:27:12.396Z,86.50
2018-06-19T23:29:41.514Z,86.60
2018-06-19T23:32:10.646Z,87.10
2018-06-19T23:34:39.771Z,87.70
2018-06-19T23:37:08.918Z,87.50
2018-06-19T23:39:38.063Z,87.30
2018-06-19T23:42:07.327Z,87.10
2018-06-19T23:44:36.445Z,86.80
2018-06-19T23:47:05.598Z,87.10
2018-06-19T23:49:34.754Z,88.00
2018-06-19T23:52:03.952Z,88.50
2018-06-19T23:54:33.249Z,89.20
2018-06-19T23:57:02.451Z,89.60
2018-06-19T23:59:31.621Z,89.80
